Time;durP1;ratioP1;P1;durP2;ratioP2;P2;SDS_P1;SDS_P2;PMS_P1;PMS_P2;Temp;Humidity;BMP_temperature;BMP_pressure;BME280_temperature;BME280_humidity;BME280_pressure;Samples;Min_cycle;Max_cycle;Signal;HPM_P1;HPM_P2
2022/05/03 00:01:24;;;;;;;11.50;8.80;;;;;;;22.27;52.64;98471.05;1663054;85;28360;-88
2022/05/03 00:04:25;;;;;;;10.78;8.63;;;;;;;22.26;52.63;98463.89;1663176;85;25837;-88
2022/05/03 00:07:24;;;;;;;11.05;8.90;;;;;;;22.24;52.62;98455.91;1661778;85;26438;-88
2022/05/03 00:10:04;;;;;;;11.48;8.85;;;;;;;22.25;52.65;98452.53;1661999;84;26137;-88
2022/05/03 00:12:54;;;;;;;11.20;9.20;;;;;;;22.25;52.67;98467.89;1663196;85;25627;-88
2022/05/03 00:15:23;;;;;;;12.23;9.28;;;;;;;22.23;52.66;98465.49;1663196;85;27453;-88
2022/05/03 00:17:52;;;;;;;10.68;8.70;;;;;;;22.22;52.67;98467.28;1663047;85;25651;-88
2022/05/03 00:20:18;;;;;;;11.65;9.13;;;;;;;22.21;52.67;98467.88;1663159;85;25651;-88
2022/05/03 00:22:45;;;;;;;12.50;9.40;;;;;;;22.19;52.68;98465.48;1663191;85;26903;-88
2022/05/03 00:25:12;;;;;;;12.15;9.30;;;;;;;22.21;52.76;98469.86;1663144;85;25620;-88
2022/05/03 00:27:38;;;;;;;11.22;9.18;;;;;;;22.20;52.70;98466.28;1663139;85;27378;-88
2022/05/03 00:30:06;;;;;;;11.12;9.05;;;;;;;22.21;52.70;98466.48;1663059;86;25882;-88
2022/05/03 00:32:34;;;;;;;11.97;9.18;;;;;;;22.21;52.73;98462.29;1663081;84;25694;-88
2022/05/03 00:35:00;;;;;;;11.95;9.30;;;;;;;22.20;52.72;98462.10;1662757;85;26098;-88
2022/05/03 00:37:27;;;;;;;11.28;9.03;;;;;;;22.21;52.76;98460.09;1663330;85;25689;-88
2022/05/03 00:39:53;;;;;;;11.68;8.68;;;;;;;22.22;52.69;98450.54;1663198;85;27398;-88
2022/05/03 00:42:23;;;;;;;10.88;8.65;;;;;;;22.22;52.72;98448.53;1663286;84;25466;-89
2022/05/03 00:45:16;;;;;;;11.60;9.20;;;;;;;22.21;52.71;98451.13;1663398;85;25477;-88
2022/05/03 00:47:54;;;;;;;12.25;9.18;;;;;;;22.23;52.73;98450.73;1662702;85;25953;-88
2022/05/03 00:50:58;;;;;;;12.70;9.50;;;;;;;22.21;52.68;98438.57;1663382;85;25421;-88
2022/05/03 00:53:34;;;;;;;12.33;9.48;;;;;;;22.21;52.70;98436.37;1663444;86;26953;-88
2022/05/03 00:56:35;;;;;;;11.97;9.40;;;;;;;22.21;52.69;98439.97;1661603;85;25615;-88
2022/05/03 00:59:35;;;;;;;12.28;9.20;;;;;;;22.20;52.70;98442.56;1627245;87;25519;-88
2022/05/03 01:02:07;;;;;;;12.15;9.15;;;;;;;22.20;52.75;98442.56;1612168;88;26039;-88
2022/05/03 01:05:09;;;;;;;11.65;9.28;;;;;;;22.17;52.78;98453.91;1635740;87;25535;-88
2022/05/03 01:07:58;;;;;;;11.48;8.83;;;;;;;22.17;52.72;98454.52;1635487;87;25977;-88
2022/05/03 01:10:51;;;;;;;11.85;9.35;;;;;;;22.16;52.75;98443.14;1635225;87;25676;-88
2022/05/03 01:13:22;;;;;;;11.95;9.28;;;;;;;22.15;52.80;98440.16;1634039;87;25926;-88
2022/05/03 01:15:53;;;;;;;12.90;9.45;;;;;;;22.15;52.79;98436.78;1635936;87;26057;-88
2022/05/03 01:18:43;;;;;;;;;;;;;;;22.15;52.81;98438.77;1636795;87;25576;-87
2022/05/03 01:21:20;;;;;;;11.15;9.05;;;;;;;22.13;52.82;98434.98;1635795;87;28315;-88
2022/05/03 01:24:13;;;;;;;11.18;9.18;;;;;;;22.12;52.84;98447.34;1635440;87;25936;-88
2022/05/03 01:26:44;;;;;;;11.53;9.43;;;;;;;22.11;52.89;98450.53;1635924;87;25785;-88
2022/05/03 01:29:33;;;;;;;12.73;9.13;;;;;;;22.10;52.89;98448.33;1633468;87;26068;-88
2022/05/03 01:32:08;;;;;;;11.05;8.68;;;;;;;22.10;52.89;98457.31;1636843;84;25868;-89
2022/05/03 01:34:36;;;;;;;12.60;9.20;;;;;;;22.10;52.88;98463.67;1691391;84;27246;-89
2022/05/03 01:37:26;;;;;;;13.32;9.58;;;;;;;22.10;52.89;98470.65;1691287;84;25496;-88
2022/05/03 01:40:25;;;;;;;11.55;9.38;;;;;;;22.10;52.89;98469.87;1691722;84;25495;-88
2022/05/03 01:43:13;;;;;;;11.63;9.63;;;;;;;22.10;52.91;98462.28;1691039;83;26004;-88
2022/05/03 01:45:59;;;;;;;12.78;9.30;;;;;;;22.11;52.91;98462.50;1691423;84;25465;-88
2022/05/03 01:52:00;;;;;;;13.88;9.70;;;;;;;22.08;52.94;98450.73;1691109;84;25483;-88
2022/05/03 01:55:10;;;;;;;10.35;8.75;;;;;;;22.08;52.91;98459.11;1691566;83;25670;-88
2022/05/03 01:57:56;;;;;;;12.05;9.68;;;;;;;22.08;52.91;98454.92;1690703;84;26000;-88
2022/05/03 02:00:23;;;;;;;12.35;9.73;;;;;;;22.06;52.94;98453.92;1676239;84;25653;-88
2022/05/03 02:03:03;;;;;;;11.57;9.88;;;;;;;22.06;52.95;98450.33;1677039;84;27480;-88
2022/05/03 02:05:49;;;;;;;;;;;;;;;22.05;52.93;98454.32;1665525;86;25437;-89
2022/05/03 02:08:22;;;;;;;11.63;9.58;;;;;;;22.06;52.97;98460.09;1663147;85;25504;-88
2022/05/03 02:11:12;;;;;;;11.75;9.63;;;;;;;22.04;52.93;98450.72;1663185;85;26009;-88
2022/05/03 02:17:10;;;;;;;11.75;9.33;;;;;;;22.04;52.98;98451.31;1663102;86;25624;-88
2022/05/03 02:20:13;;;;;;;11.80;9.45;;;;;;;22.03;52.97;98446.94;1662835;85;25744;-89
2022/05/03 02:23:02;;;;;;;12.23;9.75;;;;;;;22.03;52.99;98448.33;1663341;85;25607;-89
2022/05/03 02:25:40;;;;;;;13.28;9.85;;;;;;;22.02;52.98;98452.32;1663475;85;26900;-88
2022/05/03 02:28:34;;;;;;;11.83;9.55;;;;;;;22.01;52.99;98447.92;1663008;85;25692;-89
2022/05/03 02:31:04;;;;;;;12.33;9.78;;;;;;;22.01;53.01;98451.52;1663026;85;28305;-89
2022/05/03 02:33:42;;;;;;;12.13;9.93;;;;;;;22.02;52.99;98457.91;1663301;86;25690;-88
2022/05/03 02:36:16;;;;;;;11.57;9.23;;;;;;;22.03;52.98;98455.30;1662523;85;25630;-89
2022/05/03 02:39:05;;;;;;;11.38;9.08;;;;;;;22.03;53.00;98453.91;1661491;85;26057;-89
2022/05/03 02:41:39;;;;;;;11.60;8.93;;;;;;;22.03;52.99;98444.14;1663063;85;25626;-89
2022/05/03 02:44:07;;;;;;;12.30;9.25;;;;;;;22.03;52.97;98446.34;1663171;85;28215;-89
2022/05/03 02:46:51;;;;;;;12.95;9.65;;;;;;;22.02;52.99;98445.34;1663102;85;25846;-89
2022/05/03 02:49:48;;;;;;;12.53;10.03;;;;;;;22.04;52.99;98451.31;1663479;86;25659;-89
2022/05/03 02:52:43;;;;;;;12.95;9.35;;;;;;;22.03;53.03;98448.33;1663223;85;26050;-88
2022/05/03 02:55:43;;;;;;;11.80;9.38;;;;;;;22.02;53.03;98456.51;1663240;85;25599;-88
2022/05/03 02:58:39;;;;;;;11.78;9.15;;;;;;;22.00;53.04;98444.94;1663162;85;28324;-88
2022/05/03 03:01:49;;;;;;;11.40;9.25;;;;;;;22.00;53.02;98442.95;1663162;85;25634;-88
2022/05/03 03:04:59;;;;;;;11.75;9.55;;;;;;;21.98;53.06;98439.75;1689553;84;25714;-89
2022/05/03 03:07:28;;;;;;;11.18;9.10;;;;;;;21.96;53.09;98444.92;1691472;84;25944;-88
2022/05/03 03:10:02;;;;;;;11.18;9.00;;;;;;;21.96;53.11;98436.55;1691309;84;25436;-88
2022/05/03 03:12:42;;;;;;;12.20;9.18;;;;;;;21.94;53.10;98438.34;1691336;84;27486;-88
2022/05/03 03:15:10;;;;;;;12.50;9.60;;;;;;;21.91;53.12;98436.34;1690844;84;26041;-88
2022/05/03 03:17:46;;;;;;;11.03;9.30;;;;;;;21.94;53.14;98437.56;1691304;84;25495;-88
2022/05/03 03:20:15;;;;;;;11.38;9.33;;;;;;;21.94;53.12;98435.55;1690604;84;27100;-89
2022/05/03 03:22:48;;;;;;;10.38;9.05;;;;;;;21.92;53.13;98439.36;1691241;84;25501;-88
2022/05/03 03:25:17;;;;;;;12.28;9.60;;;;;;;21.92;53.17;98435.76;1691029;83;27610;-88
2022/05/03 03:27:47;;;;;;;12.68;9.10;;;;;;;21.93;53.19;98438.16;1691384;84;25678;-88
2022/05/03 03:30:16;;;;;;;11.33;9.53;;;;;;;21.94;53.17;98440.36;1691446;83;25726;-89
2022/05/03 03:32:48;;;;;;;11.22;8.98;;;;;;;21.94;53.16;98443.92;1691217;84;26775;-89
2022/05/03 03:35:16;;;;;;;12.33;9.70;;;;;;;21.92;53.18;98439.95;1690303;84;25606;-89
2022/05/03 03:37:45;;;;;;;11.15;9.20;;;;;;;21.95;53.20;98439.15;1691210;84;27610;-89
2022/05/03 03:40:13;;;;;;;11.15;9.28;;;;;;;21.96;53.17;98440.73;1691198;83;25445;-89
2022/05/03 03:42:42;;;;;;;12.28;9.38;;;;;;;21.95;53.19;98462.86;1691040;84;25634;-89
2022/05/03 03:45:12;;;;;;;11.35;9.23;;;;;;;21.93;53.18;98461.86;1690974;84;26011;-89
2022/05/03 03:47:43;;;;;;;11.65;9.28;;;;;;;21.95;53.20;98464.26;1691491;84;25780;-88
2022/05/03 03:50:10;;;;;;;12.55;9.95;;;;;;;21.95;53.19;98467.05;1691379;84;27438;-88
2022/05/03 03:52:41;;;;;;;11.33;9.38;;;;;;;21.96;53.17;98460.87;1691315;84;25822;-88
2022/05/03 03:55:09;;;;;;;12.50;9.30;;;;;;;21.95;53.18;98462.86;1691443;84;25713;-88
2022/05/03 03:57:37;;;;;;;10.58;8.63;;;;;;;21.96;53.19;98477.62;1691286;83;25996;-88
2022/05/03 04:00:08;;;;;;;10.93;9.30;;;;;;;21.96;53.17;98470.64;1691297;83;25500;-89
2022/05/03 04:02:35;;;;;;;12.55;9.43;;;;;;;21.94;53.20;98454.30;1691351;83;27398;-89
2022/05/03 04:05:02;;;;;;;12.53;9.85;;;;;;;21.96;53.21;98458.87;1691217;84;25645;-88
2022/05/03 04:07:28;;;;;;;12.03;9.30;;;;;;;21.95;53.18;98464.26;1691308;84;25618;-88
2022/05/03 04:09:54;;;;;;;12.45;9.90;;;;;;;21.96;53.18;98462.27;1691442;84;26586;-88
2022/05/03 04:12:21;;;;;;;12.40;10.13;;;;;;;21.96;53.23;98460.87;1691484;83;25604;-88
2022/05/03 04:14:48;;;;;;;12.33;9.78;;;;;;;21.97;53.17;98465.26;1691275;83;28182;-88
2022/05/03 04:17:14;;;;;;;12.73;9.58;;;;;;;21.96;53.21;98463.05;1691318;84;25444;-88
2022/05/03 04:19:42;;;;;;;11.65;9.63;;;;;;;21.94;53.23;98457.87;1691486;83;25649;-88
2022/05/03 04:22:30;;;;;;;11.45;9.58;;;;;;;21.94;53.20;98457.87;1691147;84;26838;-88
2022/05/03 04:24:57;;;;;;;12.78;9.75;;;;;;;21.94;53.20;98455.08;1691448;84;25777;-88
2022/05/03 04:27:24;;;;;;;11.40;9.33;;;;;;;21.96;53.23;98458.09;1691500;84;27445;-88
2022/05/03 04:29:51;;;;;;;12.65;9.80;;;;;;;21.95;53.24;98455.89;1691457;83;25651;-88
2022/05/03 04:32:17;;;;;;;13.75;10.18;;;;;;;21.94;53.21;98457.87;1691401;84;25599;-88
2022/05/03 04:34:43;;;;;;;12.05;9.53;;;;;;;21.93;53.25;98452.69;1691371;83;25660;-88
2022/05/03 04:37:10;;;;;;;12.28;9.45;;;;;;;21.94;53.26;98447.33;1691632;84;25679;-88
2022/05/03 04:39:36;;;;;;;13.00;9.90;;;;;;;21.96;53.26;98458.09;1691421;83;27431;-88
2022/05/03 04:42:02;;;;;;;13.20;9.80;;;;;;;21.97;53.23;98459.09;1691570;83;26337;-88
2022/05/03 04:44:28;;;;;;;12.07;9.53;;;;;;;21.97;53.23;98461.87;1691506;84;25503;-88
2022/05/03 04:46:54;;;;;;;13.45;10.10;;;;;;;21.97;53.21;98459.68;1669463;84;26081;-88
2022/05/03 04:49:20;;;;;;;11.83;9.70;;;;;;;21.97;53.22;98465.26;1691554;83;25622;-88
2022/05/03 04:51:46;;;;;;;11.45;9.08;;;;;;;21.98;53.20;98456.49;1691470;83;27458;-88
2022/05/03 04:54:12;;;;;;;12.73;10.13;;;;;;;21.98;53.17;98461.27;1691441;84;25828;-88
2022/05/03 04:56:38;;;;;;;12.88;9.90;;;;;;;21.98;53.18;98452.89;1691662;84;25478;-88
2022/05/03 04:59:04;;;;;;;12.85;9.68;;;;;;;22.00;53.16;98453.30;1691346;84;25618;-88
2022/05/03 05:01:30;;;;;;;12.50;8.98;;;;;;;22.00;53.15;98455.51;1691422;84;25455;-88
2022/05/03 05:03:56;;;;;;;12.10;9.55;;;;;;;22.01;53.10;98455.70;1676579;83;27392;-88
2022/05/03 05:06:22;;;;;;;12.88;10.32;;;;;;;22.03;53.11;98465.07;1663273;85;25730;-89
2022/05/03 05:08:48;;;;;;;11.75;9.63;;;;;;;22.05;53.08;98462.69;1663282;85;25413;-89
2022/05/03 05:11:14;;;;;;;13.03;9.50;;;;;;;22.05;53.05;98460.68;1663227;85;25927;-89
2022/05/03 05:13:41;;;;;;;11.80;9.65;;;;;;;22.06;53.06;98459.50;1663453;85;25492;-88
2022/05/03 05:16:08;;;;;;;12.90;10.20;;;;;;;22.08;53.01;98464.69;1663022;85;27503;-88
2022/05/03 05:18:34;;;;;;;13.45;9.65;;;;;;;22.09;53.05;98466.86;1663228;86;25819;-89
2022/05/03 05:21:00;;;;;;;11.97;9.45;;;;;;;22.09;52.98;98466.27;1663417;85;25588;-89
2022/05/03 05:23:26;;;;;;;11.83;9.40;;;;;;;22.11;52.97;98467.27;1663276;85;26676;-88
2022/05/03 05:25:54;;;;;;;12.65;9.83;;;;;;;22.10;52.96;98466.47;1663360;85;25572;-89
2022/05/03 05:28:22;;;;;;;12.43;9.70;;;;;;;22.09;52.97;98469.06;1662947;85;28419;-89
2022/05/03 05:30:51;;;;;;;12.30;9.58;;;;;;;22.11;52.94;98471.45;1663124;86;25238;-89
2022/05/03 05:33:18;;;;;;;12.25;10.08;;;;;;;22.12;52.89;98478.63;1663063;85;25465;-88
2022/05/03 05:35:44;;;;;;;10.98;9.28;;;;;;;22.12;52.84;98475.25;1663020;85;26141;-89
2022/05/03 05:38:13;;;;;;;12.03;9.55;;;;;;;22.14;52.77;98479.04;1663314;85;25739;-88
2022/05/03 05:40:38;;;;;;;12.43;9.63;;;;;;;22.16;52.59;98477.44;1662992;85;27016;-89
2022/05/03 05:43:04;;;;;;;12.35;9.60;;;;;;;22.15;52.67;98476.44;1663232;85;25489;-89
2022/05/03 05:45:30;;;;;;;12.15;9.25;;;;;;;22.16;52.80;98479.42;1663364;85;25465;-89
2022/05/03 05:47:57;;;;;;;12.33;9.85;;;;;;;22.17;52.85;98488.02;1663284;85;26078;-88
2022/05/03 05:50:25;;;;;;;11.40;9.13;;;;;;;22.19;52.80;98489.78;1663351;85;25521;-88
2022/05/03 05:55:36;;;;;;;12.05;9.85;;;;;;;22.23;52.88;98495.38;1662887;86;25491;-88
2022/05/03 05:58:05;;;;;;;12.03;9.38;;;;;;;22.25;52.90;98502.77;1663189;85;25618;-88
2022/05/03 06:00:32;;;;;;;12.28;10.10;;;;;;;22.26;52.82;98497.38;1662937;84;25564;-88
2022/05/03 06:02:59;;;;;;;14.45;11.15;;;;;;;22.25;52.56;98499.37;1663435;84;25432;-88
2022/05/03 06:05:25;;;;;;;15.80;12.58;;;;;;;22.23;52.25;98502.36;1663036;83;27545;-88
2022/05/03 06:07:53;;;;;;;16.32;12.18;;;;;;;22.19;51.77;98507.93;1663375;85;25662;-88
2022/05/03 06:10:23;;;;;;;20.17;13.15;;;;;;;22.17;51.33;98504.14;1663006;85;25701;-88
2022/05/03 06:12:50;;;;;;;;;;;;;;;22.14;50.78;98511.91;1665404;86;25981;-89
2022/05/03 06:15:19;;;;;;;16.75;12.23;;;;;;;22.11;50.32;98514.13;1663269;86;25690;-88
2022/05/03 06:17:46;;;;;;;20.80;13.48;;;;;;;22.07;50.24;98504.92;1662950;84;27666;-88
2022/05/03 06:20:12;;;;;;;17.48;14.00;;;;;;;22.05;49.82;98505.32;1663193;85;25612;-88
2022/05/03 06:22:41;;;;;;;21.45;14.70;;;;;;;22.04;49.60;98500.14;1663219;85;25501;-88
2022/05/03 06:25:09;;;;;;;22.62;15.40;;;;;;;22.03;49.28;98496.56;1662954;84;27078;-88
2022/05/03 06:27:40;;;;;;;17.75;14.73;;;;;;;21.99;49.05;98497.14;1663324;85;25651;-88
2022/05/03 06:30:08;;;;;;;18.85;15.28;;;;;;;21.94;48.64;98501.11;1663065;85;27501;-88
2022/05/03 06:32:39;;;;;;;23.10;16.50;;;;;;;21.92;48.37;98499.92;1663183;85;25521;-88
2022/05/03 06:35:07;;;;;;;17.67;15.43;;;;;;;21.89;48.23;98500.70;1663044;85;25417;-88
2022/05/03 06:37:37;;;;;;;20.75;15.58;;;;;;;21.89;48.15;98504.30;1662980;85;26098;-88
2022/05/03 06:40:07;;;;;;;22.60;14.95;;;;;;;21.90;48.04;98503.69;1663159;84;25417;-88
2022/05/03 06:42:39;;;;;;;17.73;14.63;;;;;;;21.91;48.00;98498.33;1663540;83;27601;-88
2022/05/03 06:45:07;;;;;;;19.73;14.75;;;;;;;21.87;48.22;98501.09;1663196;85;25623;-88
2022/05/03 06:47:34;;;;;;;18.90;14.75;;;;;;;21.87;48.17;98508.08;1663192;85;25667;-89
2022/05/03 06:50:00;;;;;;;18.15;14.20;;;;;;;21.86;48.42;98503.70;1663204;85;25747;-89
2022/05/03 06:52:27;;;;;;;19.98;13.78;;;;;;;21.88;48.63;98496.33;1663199;85;25505;-88
2022/05/03 06:54:53;;;;;;;18.30;13.08;;;;;;;21.91;48.87;98498.33;1663052;85;27488;-88
2022/05/03 06:57:19;;;;;;;16.90;13.48;;;;;;;21.93;49.08;98493.94;1663107;84;25874;-89
2022/05/03 06:59:45;;;;;;;18.10;13.43;;;;;;;21.95;49.30;98493.55;1663140;85;25462;-89
2022/05/03 07:02:11;;;;;;;17.20;13.35;;;;;;;21.97;49.61;98491.17;1662868;86;26167;-90
2022/05/03 07:04:37;;;;;;;16.97;13.05;;;;;;;21.99;49.85;98493.56;1663163;83;25496;-89
2022/05/03 07:07:03;;;;;;;15.35;12.63;;;;;;;22.02;50.09;98488.59;1662875;86;27385;-89
2022/05/03 07:09:29;;;;;;;16.65;12.43;;;;;;;22.06;50.37;98487.41;1663097;85;26001;-89
2022/05/03 07:11:55;;;;;;;15.28;12.55;;;;;;;22.12;50.55;98493.39;1663142;85;25766;-89
2022/05/03 07:14:22;;;;;;;14.60;11.93;;;;;;;22.15;50.75;98493.18;1663203;85;26089;-89
2022/05/03 07:16:48;;;;;;;17.37;12.23;;;;;;;22.20;50.89;98494.19;1662993;86;25628;-89
2022/05/03 07:24:45;;;;;;;14.25;12.07;;;;;;;22.30;51.22;98504.56;1662891;86;25646;-89
2022/05/03 07:27:12;;;;;;;13.75;11.40;;;;;;;22.34;51.42;98505.97;1662938;85;26152;-89
2022/05/03 07:29:37;;;;;;;14.43;11.57;;;;;;;22.39;51.51;98503.39;1663029;86;25691;-90
2022/05/03 07:32:05;;;;;;;15.23;11.33;;;;;;;22.42;51.61;98501.16;1663205;84;27406;-89
2022/05/03 07:34:31;;;;;;;15.15;11.30;;;;;;;22.46;51.71;98504.78;1662955;85;25684;-88
2022/05/03 07:36:57;;;;;;;13.68;11.18;;;;;;;22.49;51.76;98501.78;1662998;85;25694;-89
2022/05/03 07:39:23;;;;;;;14.47;11.83;;;;;;;22.52;51.78;98498.19;1663105;85;26056;-90
2022/05/03 07:41:49;;;;;;;14.68;10.90;;;;;;;22.56;51.74;98496.19;1663267;85;25516;-89
2022/05/03 07:44:16;;;;;;;13.60;10.90;;;;;;;22.59;51.74;98501.63;1663180;85;27616;-88
2022/05/03 07:46:42;;;;;;;12.98;10.53;;;;;;;22.61;51.81;98502.80;1663134;85;25827;-89
2022/05/03 07:49:10;;;;;;;12.88;10.53;;;;;;;22.64;51.86;98506.78;1662856;85;25652;-89
2022/05/03 07:51:36;;;;;;;13.83;10.45;;;;;;;22.68;51.92;98506.98;1662853;85;26171;-89
2022/05/03 07:54:03;;;;;;;13.80;10.15;;;;;;;22.72;51.99;98509.78;1663084;86;25460;-88
2022/05/03 07:56:30;;;;;;;13.75;10.70;;;;;;;22.75;52.01;98503.98;1662987;86;28242;-88
2022/05/03 07:58:56;;;;;;;13.05;10.30;;;;;;;22.80;52.03;98507.78;1663118;86;25464;-89
2022/05/03 08:01:22;;;;;;;11.48;9.85;;;;;;;22.84;52.04;98508.57;1663276;85;25711;-89
2022/05/03 08:03:48;;;;;;;11.75;10.00;;;;;;;22.87;52.00;98509.75;1663463;84;25983;-89
2022/05/03 08:06:15;;;;;;;13.62;10.30;;;;;;;22.90;52.00;98513.95;1691396;83;25601;-89
2022/05/03 08:08:40;;;;;;;11.85;9.70;;;;;;;22.96;52.09;98513.52;1691510;84;27352;-89
2022/05/03 08:11:07;;;;;;;11.88;9.95;;;;;;;22.98;52.00;98519.52;1691308;84;25651;-89
2022/05/03 08:13:33;;;;;;;12.47;9.73;;;;;;;22.99;52.01;98516.33;1691370;83;25710;-88
2022/05/03 08:15:59;;;;;;;12.07;9.88;;;;;;;23.00;52.00;98521.32;1691366;84;26570;-88
2022/05/03 08:18:25;;;;;;;10.80;9.30;;;;;;;23.01;52.11;98525.11;1691542;83;25790;-89
2022/05/03 08:20:52;;;;;;;13.38;9.98;;;;;;;23.03;52.23;98524.71;1691455;83;27384;-89
2022/05/03 08:23:19;;;;;;;10.85;9.28;;;;;;;23.05;52.23;98523.69;1690886;83;25619;-89
2022/05/03 08:25:45;;;;;;;14.40;9.63;;;;;;;23.08;52.20;98530.49;1691371;84;25781;-89
2022/05/03 08:28:11;;;;;;;12.07;9.48;;;;;;;23.08;52.11;98531.27;1691420;84;26061;-89
2022/05/03 08:30:38;;;;;;;12.37;9.98;;;;;;;23.09;52.06;98532.89;1691328;84;25678;-89
2022/05/03 08:33:05;;;;;;;12.15;9.45;;;;;;;23.11;52.08;98528.30;1691307;83;27417;-90
2022/05/03 08:35:31;;;;;;;10.88;9.15;;;;;;;23.12;52.18;98525.69;1691369;83;25785;-89
2022/05/03 08:43:28;;;;;;;11.38;9.40;;;;;;;23.11;52.00;98524.09;1691039;84;25610;-89
2022/05/03 08:45:55;;;;;;;14.28;9.25;;;;;;;23.09;51.95;98520.31;1691420;84;28154;-89
2022/05/03 08:48:27;;;;;;;11.15;9.00;;;;;;;23.07;51.97;98522.70;1691217;84;25910;-91
2022/05/03 08:50:54;;;;;;;12.85;9.55;;;;;;;23.08;51.97;98522.89;1690979;84;25420;-89
2022/05/03 08:53:21;;;;;;;12.55;9.00;;;;;;;23.08;52.07;98522.11;1691274;84;25991;-89
2022/05/03 08:55:50;;;;;;;11.10;9.15;;;;;;;23.08;52.10;98520.09;1691295;84;25169;-89
2022/05/03 08:58:19;;;;;;;13.22;8.55;;;;;;;23.09;52.08;98523.11;1690917;84;28442;-90
2022/05/03 09:00:45;;;;;;;12.03;9.13;;;;;;;23.11;52.17;98526.28;1691412;84;25639;-90
2022/05/03 09:03:12;;;;;;;12.35;8.85;;;;;;;23.11;52.19;98520.69;1691389;84;25800;-90
2022/05/03 09:05:39;;;;;;;12.30;9.13;;;;;;;23.12;52.14;98525.69;1673410;83;26098;-90
2022/05/03 09:08:09;;;;;;;11.65;8.85;;;;;;;23.12;52.10;98520.91;1663324;85;25861;-89
2022/05/03 09:10:37;;;;;;;12.37;8.95;;;;;;;23.15;52.08;98525.69;1663069;86;28305;-90
2022/05/03 09:13:18;;;;;;;11.73;9.38;;;;;;;23.14;51.96;98518.48;1662880;85;25767;-89
2022/05/03 09:15:57;;;;;;;11.45;8.73;;;;;;;23.15;52.14;98516.50;1662218;85;25719;-88
2022/05/03 09:18:29;;;;;;;14.50;10.25;;;;;;;23.14;52.14;98522.67;1662982;86;26098;-91
2022/05/03 09:23:49;;;;;;;12.43;9.25;;;;;;;23.16;51.91;98518.08;1662973;86;25671;-92
2022/05/03 09:26:31;;;;;;;12.50;9.45;;;;;;;23.18;51.84;98512.31;1659859;85;25608;-91
2022/05/03 09:29:08;;;;;;;12.07;9.60;;;;;;;23.21;51.88;98514.08;1663060;85;25663;-93
2022/05/03 09:31:48;;;;;;;12.65;9.03;;;;;;;23.22;51.96;98513.67;1663063;86;26246;-92
2022/05/03 09:34:28;;;;;;;12.15;9.53;;;;;;;23.25;52.11;98507.87;1663201;85;25595;-90
2022/05/03 09:37:04;;;;;;;14.53;9.25;;;;;;;23.24;52.29;98514.08;1663230;86;27495;-91
2022/05/03 09:39:47;;;;;;;11.18;8.58;;;;;;;23.26;52.34;98511.66;1662735;85;25615;-90
2022/05/03 09:42:20;;;;;;;11.78;8.83;;;;;;;23.26;52.43;98503.89;1663412;86;25633;-90
2022/05/03 09:45:02;;;;;;;13.20;9.40;;;;;;;23.26;52.43;98503.27;1663277;85;26634;-91
2022/05/03 09:47:33;;;;;;;16.20;9.23;;;;;;;23.28;52.53;98504.27;1663175;85;25517;-89
2022/05/03 09:50:00;;;;;;;13.35;8.95;;;;;;;23.29;52.52;98504.48;1663311;86;27432;-88
2022/05/03 09:52:36;;;;;;;10.88;9.00;;;;;;;23.29;52.55;98504.48;1663228;85;25671;-89
2022/05/03 09:55:09;;;;;;;11.90;8.88;;;;;;;23.32;52.50;98498.08;1662818;85;25769;-89
2022/05/03 09:57:39;;;;;;;10.80;8.93;;;;;;;23.33;52.45;98495.48;1663305;85;25983;-89
2022/05/03 10:00:11;;;;;;;10.38;8.78;;;;;;;23.36;52.44;98496.06;1662229;85;25473;-88
2022/05/03 10:02:43;;;;;;;12.50;8.73;;;;;;;23.36;52.41;98491.87;1663219;85;28021;-90
2022/05/03 10:05:11;;;;;;;12.82;8.95;;;;;;;23.36;52.50;98490.47;1670566;83;25647;-87
2022/05/03 10:07:43;;;;;;;14.73;8.75;;;;;;;23.37;52.46;98491.28;1691277;84;25412;-88
2022/05/03 10:10:10;;;;;;;12.00;8.80;;;;;;;23.38;52.51;98487.30;1690564;84;25984;-88
2022/05/03 10:12:37;;;;;;;12.13;8.43;;;;;;;23.39;52.56;98484.09;1691479;84;25478;-89
2022/05/03 10:15:05;;;;;;;14.75;8.80;;;;;;;23.39;52.62;98485.50;1691404;83;28182;-87
2022/05/03 10:20:46;;;;;;;12.45;8.95;;;;;;;23.41;52.33;98488.70;1691267;84;25631;-88
2022/05/03 10:23:32;;;;;;;11.18;7.70;;;;;;;23.39;52.27;98480.50;1689977;84;25685;-88
2022/05/03 10:26:08;;;;;;;8.93;7.58;;;;;;;23.38;52.21;98481.70;1691175;84;25641;-88
2022/05/03 10:29:09;;;;;;;8.98;7.35;;;;;;;23.35;52.09;98484.70;1691106;84;27577;-89
2022/05/03 10:32:00;;;;;;;8.98;7.95;;;;;;;23.35;52.11;98481.90;1691299;84;25758;-88
2022/05/03 10:34:48;;;;;;;11.05;7.90;;;;;;;23.34;51.83;98476.09;1690674;84;25700;-89
2022/05/03 10:37:20;;;;;;;9.73;8.30;;;;;;;23.34;51.61;98480.28;1691395;84;26145;-88
2022/05/03 10:39:51;;;;;;;10.72;7.67;;;;;;;23.31;51.55;98474.11;1691470;84;25693;-88
2022/05/03 10:42:23;;;;;;;11.12;7.62;;;;;;;23.31;51.42;98471.31;1691400;84;27475;-89
2022/05/03 10:45:11;;;;;;;12.73;7.67;;;;;;;23.29;51.30;98466.12;1690776;84;25497;-90
2022/05/03 10:47:52;;;;;;;10.55;7.83;;;;;;;23.29;51.21;98470.31;1691310;84;25443;-88
2022/05/03 10:50:26;;;;;;;11.30;7.60;;;;;;;23.28;51.13;98470.72;1690960;84;26991;-88
2022/05/03 10:53:05;;;;;;;9.23;7.53;;;;;;;23.27;50.92;98468.55;1691244;84;25586;-90
2022/05/03 10:55:41;;;;;;;11.18;7.62;;;;;;;23.24;50.49;98472.74;1691150;84;27429;-91
2022/05/03 10:58:35;;;;;;;8.88;7.87;;;;;;;23.24;50.50;98472.74;1684476;83;25856;-92
2022/05/03 11:01:20;;;;;;;10.10;7.33;;;;;;;23.24;50.48;98475.53;1690162;84;25699;-90
2022/05/03 11:04:00;;;;;;;7.83;7.03;;;;;;;23.23;50.41;98504.70;1690884;84;26850;-91
2022/05/03 11:06:34;;;;;;;10.32;7.60;;;;;;;23.21;50.43;98512.68;1672475;84;25729;-92
2022/05/03 11:11:46;;;;;;;11.33;8.38;;;;;;;23.16;50.48;98502.70;1662888;86;25731;-89
2022/05/03 11:14:21;;;;;;;10.65;7.40;;;;;;;23.15;50.21;98492.15;1662957;85;25651;-90
2022/05/03 11:17:04;;;;;;;9.23;7.72;;;;;;;23.13;49.50;98483.36;1662878;86;26112;-90
2022/05/03 11:19:36;;;;;;;11.63;7.47;;;;;;;23.11;49.33;98480.16;1663264;85;25205;-93
2022/05/03 11:22:14;;;;;;;12.28;7.28;;;;;;;23.08;49.45;98476.78;1663102;85;28249;-92
2022/05/03 11:24:48;;;;;;;8.75;7.33;;;;;;;23.07;49.57;98475.19;1663147;85;25505;-93
2022/05/03 11:27:16;;;;;;;9.68;7.45;;;;;;;23.07;49.62;98472.40;1662195;85;25539;-94
2022/05/03 11:29:49;;;;;;;9.75;7.20;;;;;;;23.09;49.72;98467.80;1663385;85;26113;-94
2022/05/03 11:32:19;;;;;;;8.30;7.50;;;;;;;23.08;49.83;98467.61;1663247;85;25793;-94
2022/05/03 11:34:45;;;;;;;8.48;6.62;;;;;;;23.10;49.99;98466.59;1662649;85;27455;-94
2022/05/03 11:37:11;;;;;;;8.15;6.80;;;;;;;23.11;50.00;98452.83;1662839;85;26054;-92
2022/05/03 11:39:38;;;;;;;9.23;7.40;;;;;;;23.12;49.99;98453.83;1663186;85;25611;-90
2022/05/03 11:42:08;;;;;;;9.88;6.97;;;;;;;23.13;50.00;98449.82;1663131;85;26139;-92
2022/05/03 11:44:35;;;;;;;10.20;7.37;;;;;;;23.11;50.15;98450.04;1663362;85;25693;-92
2022/05/03 11:47:04;;;;;;;8.68;7.22;;;;;;;23.10;50.21;98452.03;1663032;85;27503;-91
2022/05/03 11:49:31;;;;;;;9.78;7.15;;;;;;;23.10;50.31;98447.03;1662836;85;25513;-91
2022/05/03 11:57:43;;;;;;;9.80;7.70;;;;;;;23.06;50.47;98453.42;1659947;85;25631;-93
2022/05/03 12:00:11;;;;;;;8.48;7.22;;;;;;;23.05;50.63;98459.42;1662395;85;26055;-92
2022/05/03 12:02:44;;;;;;;8.40;7.00;;;;;;;23.07;50.61;98454.23;1663294;85;25638;-92
2022/05/03 12:05:18;;;;;;;8.85;7.62;;;;;;;23.07;50.63;98458.42;1671873;84;25889;-91
2022/05/03 12:07:48;;;;;;;8.88;7.15;;;;;;;23.04;50.77;98453.05;1679483;85;25488;-93
2022/05/03 12:10:31;;;;;;;8.23;7.30;;;;;;;23.02;50.83;98450.44;1675353;84;25755;-91
2022/05/03 12:13:23;;;;;;;9.70;7.40;;;;;;;23.01;50.67;98454.45;1680181;84;27380;-92
2022/05/03 12:16:00;;;;;;;9.40;7.15;;;;;;;23.02;50.52;98453.23;1680124;85;25493;-92
2022/05/03 12:18:37;;;;;;;12.15;7.60;;;;;;;23.00;50.64;98447.28;1680209;84;25530;-92
2022/05/03 12:21:15;;;;;;;8.63;7.72;;;;;;;23.00;50.67;98445.87;1679858;85;26104;-93
2022/05/03 12:23:51;;;;;;;10.00;8.30;;;;;;;22.99;50.72;98445.66;1679386;84;25669;-91
2022/05/03 12:26:40;;;;;;;9.18;8.10;;;;;;;22.96;50.87;98444.48;1678898;85;27454;-90